createdAt,value
2017-07-26T16:54:40.370Z,60.33
2017-07-26T16:57:15.261Z,60.29
2017-07-26T16:59:47.989Z,60.25
2017-07-26T17:02:36.345Z,60.21
2017-07-26T17:05:08.145Z,60.14
2017-07-26T17:07:39.739Z,60.11
2017-07-26T17:10:12.649Z,60.09
2017-07-26T17:12:45.186Z,59.98
2017-07-26T17:15:16.655Z,59.83
2017-07-26T17:17:53.037Z,59.94
2017-07-26T17:20:24.544Z,59.83
2017-07-26T17:22:56.262Z,60.02
2017-07-26T17:25:28.108Z,60.06
2017-07-26T17:27:59.575Z,60.01
2017-07-26T17:30:31.277Z,60.03
2017-07-26T17:33:02.800Z,59.92
2017-07-26T17:35:34.180Z,60.02
2017-07-26T17:38:06.565Z,60.16
2017-07-26T17:40:38.491Z,60.04
2017-07-26T17:43:10.553Z,59.99
2017-07-26T17:45:41.891Z,60.11
2017-07-26T17:48:16.062Z,60.02
2017-07-26T17:50:48.111Z,60.20
2017-07-26T17:53:23.278Z,60.23
2017-07-26T17:55:55.168Z,60.23
2017-07-26T17:58:27.687Z,60.09
2017-07-26T18:00:59.892Z,60.27
2017-07-26T18:03:31.145Z,60.32
2017-07-26T18:06:02.843Z,60.36
2017-07-26T18:08:34.097Z,60.41
2017-07-26T18:11:05.847Z,60.45
2017-07-26T18:13:39.215Z,60.52
2017-07-26T18:16:11.645Z,60.65
2017-07-26T18:18:43.660Z,60.43
2017-07-26T18:21:16.254Z,60.55
2017-07-26T18:23:48.733Z,60.54
2017-07-26T18:26:22.689Z,60.68
2017-07-26T18:28:54.394Z,60.77
2017-07-26T18:31:26.951Z,60.71
2017-07-26T18:33:59.852Z,60.79
2017-07-26T18:36:31.387Z,60.92
2017-07-26T18:39:02.829Z,60.94
2017-07-26T18:41:34.469Z,60.92
2017-07-26T18:44:05.783Z,60.93
2017-07-26T18:46:37.310Z,60.97
2017-07-26T18:49:09.485Z,61.00
2017-07-26T18:51:40.991Z,61.48
2017-07-26T18:54:12.921Z,61.28
2017-07-26T18:56:44.314Z,61.14
2017-07-26T18:59:16.377Z,61.16
2017-07-26T19:01:48.111Z,61.08
2017-07-26T19:04:22.174Z,61.21
2017-07-26T19:06:53.896Z,61.20
2017-07-26T19:09:26.791Z,61.13
2017-07-26T19:11:57.937Z,61.13
2017-07-26T19:14:29.662Z,61.07
2017-07-26T19:17:01.335Z,60.98
2017-07-26T19:19:33.132Z,61.00
2017-07-26T19:22:04.708Z,60.86
2017-07-26T19:24:36.427Z,61.02
2017-07-26T19:27:08.225Z,61.06
2017-07-26T19:29:39.856Z,61.05
2017-07-26T19:32:12.567Z,61.28
2017-07-26T19:34:44.793Z,61.07
2017-07-26T19:37:16.333Z,61.29
2017-07-26T19:39:47.908Z,61.46
2017-07-26T19:42:22.249Z,61.37
2017-07-26T19:44:53.855Z,61.18
2017-07-26T19:47:27.775Z,61.13
2017-07-26T19:49:59.910Z,61.33
2017-07-26T19:52:31.408Z,61.30
2017-07-26T19:55:03.270Z,61.43
2017-07-26T19:57:41.292Z,61.31
2017-07-26T20:00:15.053Z,61.10
2017-07-26T20:02:47.712Z,61.11
2017-07-26T20:05:22.462Z,61.18
2017-07-26T20:07:54.862Z,61.22
2017-07-26T20:10:27.009Z,61.05
2017-07-26T20:12:58.353Z,61.27
2017-07-26T20:15:29.965Z,61.20
2017-07-26T20:18:01.730Z,61.18
2017-07-26T20:20:33.724Z,61.25
2017-07-26T20:23:06.452Z,61.23
2017-07-26T20:25:38.011Z,61.21
2017-07-26T20:28:10.235Z,61.11
2017-07-26T20:30:42.179Z,61.02
2017-07-26T20:33:13.917Z,61.17
2017-07-26T20:35:45.680Z,61.04
2017-07-26T20:38:17.157Z,61.15
2017-07-26T20:40:48.743Z,61.10
2017-07-26T20:43:23.565Z,61.06
2017-07-26T20:45:55.379Z,61.14
2017-07-26T20:48:26.979Z,61.02
2017-07-26T20:50:59.107Z,60.93
2017-07-26T20:53:30.583Z,61.01
2017-07-26T20:56:02.941Z,61.00
2017-07-26T20:58:38.949Z,61.03
2017-07-26T21:01:10.681Z,60.93
2017-07-26T21:03:42.983Z,60.95
2017-07-26T21:06:14.887Z,61.04
2017-07-26T21:08:46.525Z,61.03
2017-07-26T21:11:20.307Z,61.07
2017-07-26T21:13:52.451Z,61.04
2017-07-26T21:16:27.516Z,61.09
2017-07-26T21:18:59.426Z,61.26
2017-07-26T21:21:31.440Z,61.21
2017-07-26T21:24:03.107Z,61.25
2017-07-26T21:26:34.418Z,61.24
2017-07-26T21:29:06.865Z,61.13
2017-07-26T21:31:38.654Z,61.13
2017-07-26T21:34:10.625Z,61.21
2017-07-26T21:36:42.104Z,61.31
2017-07-26T21:39:13.807Z,61.21
2017-07-26T21:41:45.725Z,61.10
2017-07-26T21:44:20.843Z,61.30
2017-07-26T21:46:53.989Z,61.22
2017-07-26T21:49:28.534Z,61.24
2017-07-26T21:52:01.408Z,61.31
2017-07-26T21:54:34.398Z,61.36
2017-07-26T21:57:07.512Z,61.41
2017-07-26T21:59:39.556Z,61.27
2017-07-26T22:02:16.347Z,61.32
2017-07-26T22:04:50.344Z,61.28
2017-07-26T22:07:25.234Z,61.34
2017-07-26T22:09:58.331Z,61.36
2017-07-26T22:12:31.088Z,61.39
2017-07-26T22:15:03.453Z,61.51
2017-07-26T22:17:36.818Z,61.46
2017-07-26T22:20:09.463Z,61.48
2017-07-26T22:22:41.544Z,61.38
2017-07-26T22:25:14.497Z,61.38
2017-07-26T22:27:47.102Z,61.31
2017-07-26T22:30:22.068Z,61.30
2017-07-26T22:32:56.231Z,61.30
2017-07-26T22:35:29.243Z,61.39
2017-07-26T22:38:01.745Z,61.31
2017-07-26T22:40:34.525Z,61.29
2017-07-26T22:43:06.739Z,61.36
2017-07-26T22:45:39.726Z,61.45
2017-07-26T22:48:12.903Z,61.45
2017-07-26T22:50:45.128Z,61.33
2017-07-26T22:53:17.673Z,61.47
2017-07-26T22:55:52.795Z,61.24
2017-07-26T22:58:27.051Z,61.40
2017-07-26T23:00:59.711Z,61.26
2017-07-26T23:03:32.541Z,61.42
2017-07-26T23:06:05.175Z,61.40
2017-07-26T23:08:42.374Z,61.43
2017-07-26T23:14:00.328Z,61.46
2017-07-26T23:16:33.384Z,61.44
2017-07-26T23:19:05.783Z,61.43
2017-07-26T23:21:38.003Z,61.43
2017-07-26T23:24:10.645Z,61.48
2017-07-26T23:26:44.416Z,61.36
2017-07-26T23:29:16.368Z,61.36
2017-07-26T23:31:49.122Z,61.37
2017-07-26T23:34:23.417Z,61.39
2017-07-26T23:36:55.927Z,61.39
2017-07-26T23:39:27.921Z,61.30
2017-07-26T23:42:00.657Z,61.23
2017-07-26T23:44:33.242Z,61.35
2017-07-26T23:47:05.375Z,61.49
2017-07-26T23:49:37.752Z,61.31
2017-07-26T23:52:10.044Z,61.30
2017-07-26T23:54:42.626Z,61.33
2017-07-26T23:57:15.981Z,61.30
2017-07-26T23:59:48.016Z,61.43
